Time;durP1;ratioP1;P1;durP2;ratioP2;P2;SDS_P1;SDS_P2;PMS_P1;PMS_P2;Temp;Humidity;BMP_temperature;BMP_pressure;BME280_temperature;BME280_humidity;BME280_pressure;Samples;Min_cycle;Max_cycle;Signal;HPM_P1;HPM_P2
2022/03/07 00:02:19;;;;;;;0.10;0.10;;;3.20;74.30;;;;;;6275077;22;20416;-72
2022/03/07 00:04:47;;;;;;;3.28;0.70;;;3.10;74.60;;;;;;6275023;22;20003;-72
2022/03/07 00:07:13;;;;;;;0.15;0.15;;;3.10;75.20;;;;;;6285233;22;20029;-71
2022/03/07 00:09:38;;;;;;;1.30;0.95;;;3.10;75.30;;;;;;6274818;22;20004;-71
2022/03/07 00:12:05;;;;;;;0.10;0.10;;;3.10;75.40;;;;;;6284909;22;20065;-72
2022/03/07 00:14:33;;;;;;;0.10;0.10;;;3.10;75.40;;;;;;6274793;22;20424;-72
2022/03/07 00:16:59;;;;;;;3.63;1.05;;;3.00;75.70;;;;;;6284683;22;20012;-72
2022/03/07 00:19:25;;;;;;;0.10;0.10;;;3.00;75.40;;;;;;6274977;22;20424;-72
2022/03/07 00:21:53;;;;;;;0.73;0.68;;;3.00;75.30;;;;;;6284730;22;20004;-71
2022/03/07 00:24:22;;;;;;;0.10;0.10;;;3.00;74.60;;;;;;6285067;22;20016;-72
2022/03/07 00:26:48;;;;;;;0.40;0.40;;;3.00;73.70;;;;;;6284767;22;20046;-72
2022/03/07 00:29:13;;;;;;;0.10;0.10;;;3.00;73.80;;;;;;6284821;22;20540;-72
2022/03/07 00:31:39;;;;;;;0.20;0.20;;;3.00;74.00;;;;;;6285105;22;20087;-71
2022/03/07 00:34:05;;;;;;;0.10;0.10;;;3.00;74.30;;;;;;6274978;22;20003;-72
2022/03/07 00:36:31;;;;;;;0.10;0.10;;;3.00;74.00;;;;;;6284917;22;20007;-73
2022/03/07 00:38:57;;;;;;;0.43;0.43;;;2.90;74.10;;;;;;6258862;22;20011;-72
2022/03/07 00:41:22;;;;;;;0.30;0.30;;;2.90;73.80;;;;;;6276690;22;20019;-72
2022/03/07 00:43:48;;;;;;;0.10;0.10;;;2.90;73.70;;;;;;6277032;22;20298;-71
2022/03/07 00:46:14;;;;;;;0.50;0.50;;;3.00;73.90;;;;;;6276695;22;20504;-72
2022/03/07 00:48:40;;;;;;;0.10;0.10;;;3.00;74.00;;;;;;6286982;22;20000;-72
2022/03/07 00:51:06;;;;;;;0.73;0.73;;;3.00;74.10;;;;;;6276544;22;20018;-71
2022/03/07 00:53:32;;;;;;;0.10;0.10;;;3.00;74.30;;;;;;6276874;22;20325;-71
2022/03/07 00:55:57;;;;;;;0.25;0.15;;;3.00;74.30;;;;;;6286609;22;20145;-72
2022/03/07 00:58:24;;;;;;;3.55;1.35;;;3.00;74.60;;;;;;6277055;22;20053;-72
2022/03/07 01:00:50;;;;;;;0.10;0.10;;;3.00;75.10;;;;;;6286767;22;20066;-72
2022/03/07 01:03:17;;;;;;;0.52;0.52;;;3.00;75.10;;;;;;6277023;22;20083;-72
2022/03/07 01:05:44;;;;;;;0.10;0.10;;;2.90;75.10;;;;;;6277029;22;20016;-72
2022/03/07 01:08:11;;;;;;;0.30;0.30;;;2.90;75.40;;;;;;6286858;22;20004;-74
2022/03/07 01:10:38;;;;;;;0.20;0.20;;;2.90;75.50;;;;;;6284986;22;20459;-72
2022/03/07 01:13:05;;;;;;;0.20;0.20;;;2.90;75.30;;;;;;6275340;22;20008;-72
2022/03/07 01:15:31;;;;;;;0.10;0.10;;;2.90;75.30;;;;;;6276688;22;20012;-72
2022/03/07 01:17:59;;;;;;;0.47;0.47;;;2.80;74.60;;;;;;6276592;22;20008;-71
2022/03/07 01:20:27;;;;;;;0.50;0.50;;;2.90;74.20;;;;;;6276828;22;20018;-72
2022/03/07 01:22:53;;;;;;;0.20;0.20;;;2.90;73.90;;;;;;6286446;22;20011;-71
2022/03/07 01:25:19;;;;;;;0.10;0.10;;;2.90;73.60;;;;;;6276740;22;20023;-71
2022/03/07 01:27:45;;;;;;;0.10;0.10;;;2.90;74.80;;;;;;6276834;22;20008;-71
2022/03/07 01:30:10;;;;;;;3.72;1.88;;;2.90;76.90;;;;;;6286473;22;20137;-71
2022/03/07 01:32:37;;;;;;;0.15;0.15;;;2.80;81.40;;;;;;6286773;22;20045;-72
2022/03/07 01:35:05;;;;;;;0.68;0.68;;;2.70;83.60;;;;;;6276379;22;20090;-72
2022/03/07 01:37:31;;;;;;;0.10;0.10;;;2.70;86.00;;;;;;6249553;22;20333;-72
2022/03/07 01:39:57;;;;;;;0.65;0.60;;;2.70;88.00;;;;;;6276272;22;20087;-73
2022/03/07 01:42:22;;;;;;;0.10;0.10;;;2.60;89.30;;;;;;6259518;22;20039;-71
2022/03/07 01:44:48;;;;;;;0.20;0.20;;;2.60;90.20;;;;;;6286590;22;20057;-71
2022/03/07 01:47:14;;;;;;;0.10;0.10;;;2.50;90.50;;;;;;6276428;22;20004;-71
2022/03/07 01:49:41;;;;;;;1.25;0.75;;;2.40;90.90;;;;;;6276508;22;20302;-71
2022/03/07 01:52:08;;;;;;;1.08;0.90;;;2.30;91.50;;;;;;6275832;22;20015;-71
2022/03/07 01:54:34;;;;;;;0.10;0.10;;;2.20;92.00;;;;;;6276564;22;20023;-71
2022/03/07 01:57:00;;;;;;;1.33;1.23;;;2.20;92.20;;;;;;6286261;22;20004;-72
2022/03/07 01:59:29;;;;;;;0.10;0.10;;;2.20;92.30;;;;;;6276533;22;19999;-71
2022/03/07 02:01:55;;;;;;;1.65;1.35;;;2.20;92.20;;;;;;6286145;22;20008;-72
2022/03/07 02:04:22;;;;;;;0.22;0.22;;;2.30;92.10;;;;;;6276570;22;20004;-72
2022/03/07 02:06:48;;;;;;;0.10;0.10;;;2.30;91.70;;;;;;6276496;22;20062;-72
2022/03/07 02:09:16;;;;;;;0.10;0.10;;;2.30;91.00;;;;;;6286042;22;20003;-73
2022/03/07 02:11:43;;;;;;;1.50;1.40;;;2.20;90.70;;;;;;6249176;22;20012;-71
2022/03/07 02:14:24;;;;;;;1.35;1.17;;;2.20;90.30;;;;;;6276227;22;20007;-71
2022/03/07 02:16:51;;;;;;;2.72;2.55;;;2.30;90.20;;;;;;6286282;22;20004;-71
2022/03/07 02:19:17;;;;;;;0.00;0.00;;;2.30;90.50;;;;;;6276391;22;20007;-72
2022/03/07 02:21:49;;;;;;;0.15;0.15;;;2.40;90.20;;;;;;6286374;22;20329;-72
2022/03/07 02:24:18;;;;;;;0.10;0.10;;;2.40;90.20;;;;;;6285750;22;20004;-72
2022/03/07 02:27:05;;;;;;;0.30;0.30;;;2.40;90.30;;;;;;6276472;22;20014;-71
2022/03/07 02:29:32;;;;;;;0.55;0.43;;;2.30;90.60;;;;;;6286246;22;20436;-71
2022/03/07 02:31:59;;;;;;;0.30;0.30;;;2.30;90.70;;;;;;6276237;22;20003;-74
2022/03/07 02:34:25;;;;;;;0.10;0.10;;;2.30;90.70;;;;;;6248871;22;20370;-72
2022/03/07 02:36:51;;;;;;;0.10;0.10;;;2.20;90.60;;;;;;6276290;22;20007;-72
2022/03/07 02:39:17;;;;;;;0.00;0.00;;;2.10;90.50;;;;;;6275741;22;20078;-71
2022/03/07 02:41:44;;;;;;;0.10;0.10;;;2.10;90.10;;;;;;6286368;22;20012;-71
2022/03/07 02:44:10;;;;;;;0.20;0.20;;;2.10;90.00;;;;;;6284521;22;20359;-72
2022/03/07 02:46:37;;;;;;;0.10;0.10;;;2.10;89.70;;;;;;6285953;22;20048;-71
2022/03/07 02:49:04;;;;;;;0.20;0.20;;;2.10;89.80;;;;;;6274570;22;20012;-72
2022/03/07 02:51:31;;;;;;;0.13;0.13;;;2.10;90.10;;;;;;6286077;22;20015;-72
2022/03/07 02:53:56;;;;;;;0.10;0.10;;;2.00;90.90;;;;;;6284312;22;20344;-72
2022/03/07 02:56:22;;;;;;;0.10;0.10;;;1.90;91.50;;;;;;6276248;22;20007;-72
2022/03/07 02:58:48;;;;;;;0.10;0.10;;;1.80;91.70;;;;;;6285873;22;20003;-72
2022/03/07 03:01:14;;;;;;;0.10;0.10;;;1.80;91.80;;;;;;6275729;22;20424;-72
2022/03/07 03:03:39;;;;;;;0.10;0.10;;;1.80;91.90;;;;;;6274606;22;20038;-72
2022/03/07 03:06:05;;;;;;;0.47;0.47;;;1.90;91.70;;;;;;6275906;22;20007;-72
2022/03/07 03:08:31;;;;;;;0.10;0.10;;;1.80;91.50;;;;;;6285959;22;20007;-72
2022/03/07 03:10:57;;;;;;;0.10;0.10;;;1.80;91.40;;;;;;6275598;22;20015;-72
2022/03/07 03:13:24;;;;;;;0.10;0.10;;;1.70;91.30;;;;;;6285917;22;20845;-71
2022/03/07 03:15:52;;;;;;;0.10;0.10;;;1.70;91.30;;;;;;6275862;22;20007;-72
2022/03/07 03:18:19;;;;;;;0.10;0.10;;;1.70;91.50;;;;;;6285505;22;20375;-72
2022/03/07 03:20:50;;;;;;;0.10;0.10;;;1.70;91.20;;;;;;6275795;22;20004;-73
2022/03/07 03:23:17;;;;;;;0.10;0.10;;;1.60;91.00;;;;;;6275724;22;20456;-72
2022/03/07 03:25:43;;;;;;;0.65;0.65;;;1.60;91.10;;;;;;6285662;22;20011;-72
2022/03/07 03:28:09;;;;;;;0.10;0.10;;;1.60;91.10;;;;;;6285619;22;20064;-72
2022/03/07 03:30:35;;;;;;;0.30;0.30;;;1.60;91.00;;;;;;6274237;22;20049;-71
2022/03/07 03:33:02;;;;;;;0.10;0.10;;;1.60;91.10;;;;;;6285370;22;20324;-72
2022/03/07 03:35:28;;;;;;;0.10;0.10;;;1.50;91.10;;;;;;6285584;22;20007;-72
2022/03/07 03:37:54;;;;;;;0.57;0.57;;;1.50;91.20;;;;;;6285739;22;20082;-72
2022/03/07 03:40:20;;;;;;;8.98;2.28;;;1.50;90.90;;;;;;6285329;22;20050;-72
2022/03/07 03:42:46;;;;;;;0.10;0.10;;;1.50;90.80;;;;;;6285613;22;20047;-72
2022/03/07 03:45:14;;;;;;;0.10;0.10;;;1.40;90.80;;;;;;6285535;22;20071;-72
2022/03/07 03:47:43;;;;;;;0.10;0.10;;;1.40;90.80;;;;;;6274029;22;20034;-72
2022/03/07 03:50:12;;;;;;;0.10;0.10;;;1.40;90.90;;;;;;6285375;22;20008;-72
2022/03/07 03:52:38;;;;;;;0.30;0.30;;;1.30;90.80;;;;;;6245089;23;20011;-72
2022/03/07 03:55:06;;;;;;;0.10;0.10;;;1.40;90.80;;;;;;6227747;23;20075;-73
2022/03/07 03:57:32;;;;;;;0.22;0.22;;;1.30;90.80;;;;;;6217849;23;20400;-72
2022/03/07 03:59:58;;;;;;;0.10;0.10;;;1.30;90.80;;;;;;6254590;23;20003;-72
2022/03/07 04:02:24;;;;;;;0.10;0.10;;;1.30;90.90;;;;;;6218129;23;20016;-72
2022/03/07 04:04:50;;;;;;;0.38;0.38;;;1.30;90.80;;;;;;6254536;23;20066;-72
2022/03/07 04:07:16;;;;;;;0.10;0.10;;;1.20;90.80;;;;;;6244713;23;20019;-71
2022/03/07 04:09:42;;;;;;;0.10;0.10;;;1.30;90.80;;;;;;6244793;23;20012;-71
2022/03/07 04:12:08;;;;;;;0.10;0.10;;;1.10;91.10;;;;;;6244640;23;20020;-72
2022/03/07 04:14:35;;;;;;;0.10;0.10;;;1.10;91.20;;;;;;6244706;23;20032;-72
2022/03/07 04:17:01;;;;;;;0.10;0.10;;;1.10;91.20;;;;;;6227490;23;20072;-72
2022/03/07 04:19:27;;;;;;;0.30;0.30;;;1.10;91.30;;;;;;6244744;23;20004;-72
2022/03/07 04:21:53;;;;;;;0.20;0.20;;;1.10;91.00;;;;;;6227827;23;20087;-71
2022/03/07 04:24:19;;;;;;;0.70;0.70;;;1.10;90.90;;;;;;6254515;23;20103;-73
2022/03/07 04:26:45;;;;;;;0.20;0.20;;;1.10;91.00;;;;;;6244649;23;20042;-72
2022/03/07 04:29:11;;;;;;;0.00;0.00;;;1.10;90.90;;;;;;6243861;23;20019;-72
2022/03/07 04:31:40;;;;;;;0.05;0.05;;;1.10;91.10;;;;;;6227546;23;20008;-72
2022/03/07 04:34:07;;;;;;;0.22;0.22;;;1.10;90.60;;;;;;6254278;23;20476;-72
2022/03/07 04:36:35;;;;;;;0.10;0.10;;;1.10;90.40;;;;;;6244239;23;20019;-72
2022/03/07 04:39:03;;;;;;;0.20;0.20;;;1.10;90.30;;;;;;6253842;23;20008;-72
2022/03/07 04:41:29;;;;;;;0.10;0.10;;;1.10;90.10;;;;;;6244319;23;20016;-72
2022/03/07 04:43:54;;;;;;;0.10;0.10;;;1.10;89.90;;;;;;6254274;23;20083;-72
2022/03/07 04:46:20;;;;;;;0.35;0.35;;;1.10;90.00;;;;;;6244281;23;20004;-71
2022/03/07 04:48:46;;;;;;;0.10;0.10;;;1.10;90.00;;;;;;6243655;23;20031;-71
2022/03/07 04:51:12;;;;;;;0.40;0.40;;;1.10;90.10;;;;;;6237029;22;20012;-73
2022/03/07 04:53:38;;;;;;;0.90;0.90;;;1.10;90.30;;;;;;6285154;22;20008;-72
2022/03/07 04:56:04;;;;;;;0.10;0.10;;;1.00;90.20;;;;;;6283583;22;20012;-72
2022/03/07 04:58:30;;;;;;;1.13;1.10;;;1.00;90.10;;;;;;6274492;22;20450;-74
2022/03/07 05:00:56;;;;;;;0.30;0.30;;;1.00;89.80;;;;;;6274671;22;20080;-76
2022/03/07 05:03:22;;;;;;;1.25;0.98;;;1.00;89.40;;;;;;6284657;22;20081;-69
2022/03/07 05:05:49;;;;;;;0.17;0.17;;;1.00;89.10;;;;;;6284866;22;20004;-70
2022/03/07 05:08:15;;;;;;;0.10;0.10;;;1.00;88.70;;;;;;6274817;22;20004;-71
2022/03/07 05:10:41;;;;;;;0.10;0.10;;;0.90;88.70;;;;;;6274610;22;20007;-71
2022/03/07 05:13:07;;;;;;;1.35;0.55;;;0.80;88.80;;;;;;6284823;22;20485;-70
2022/03/07 05:15:33;;;;;;;0.10;0.10;;;0.90;88.60;;;;;;6274506;22;20039;-69
2022/03/07 05:17:59;;;;;;;0.10;0.10;;;0.70;88.50;;;;;;6274813;22;20042;-68
2022/03/07 05:20:26;;;;;;;0.30;0.30;;;0.80;89.00;;;;;;6284686;22;20004;-69
2022/03/07 05:22:53;;;;;;;0.00;0.00;;;0.80;89.50;;;;;;6274854;22;20094;-68
2022/03/07 05:25:20;;;;;;;0.20;0.20;;;0.80;89.70;;;;;;6286102;22;20015;-68
2022/03/07 05:27:46;;;;;;;0.10;0.10;;;0.90;89.20;;;;;;6286808;22;20007;-68
2022/03/07 05:30:22;;;;;;;0.10;0.10;;;1.00;90.00;;;;;;6276347;22;20008;-69
2022/03/07 05:32:53;;;;;;;0.10;0.10;;;0.90;87.80;;;;;;6286469;22;20014;-67
2022/03/07 05:35:21;;;;;;;0.20;0.20;;;0.90;87.60;;;;;;6276269;22;20018;-68
2022/03/07 05:37:48;;;;;;;1.88;1.17;;;0.90;87.60;;;;;;6276902;22;20003;-66
2022/03/07 05:40:16;;;;;;;0.10;0.10;;;1.00;87.60;;;;;;6276766;22;20011;-66
2022/03/07 05:42:43;;;;;;;0.10;0.10;;;0.80;87.40;;;;;;6276901;22;20421;-66
2022/03/07 05:45:12;;;;;;;0.10;0.10;;;0.90;87.90;;;;;;6284915;22;20000;-66
2022/03/07 05:47:38;;;;;;;0.10;0.10;;;0.90;87.60;;;;;;6286402;22;20012;-67
2022/03/07 05:50:05;;;;;;;0.30;0.30;;;0.90;87.70;;;;;;6275044;22;20007;-65
2022/03/07 05:52:31;;;;;;;0.50;0.50;;;0.90;87.70;;;;;;6276156;22;20425;-67
2022/03/07 05:54:57;;;;;;;0.10;0.10;;;0.80;87.60;;;;;;6286239;22;20057;-67
2022/03/07 05:57:23;;;;;;;0.35;0.35;;;0.80;87.90;;;;;;6274019;22;20433;-72
2022/03/07 05:59:49;;;;;;;0.10;0.10;;;0.80;87.90;;;;;;6274653;22;20091;-67
2022/03/07 06:02:14;;;;;;;2.42;2.00;;;0.80;87.60;;;;;;6285986;22;20007;-67
2022/03/07 06:04:41;;;;;;;0.73;0.65;;;0.80;87.60;;;;;;6276239;22;20008;-67
2022/03/07 06:07:07;;;;;;;0.55;0.55;;;0.80;87.60;;;;;;6284720;22;20074;-67
2022/03/07 06:09:33;;;;;;;0.20;0.20;;;0.80;87.50;;;;;;6274033;22;20034;-67
2022/03/07 06:11:59;;;;;;;2.03;1.90;;;0.80;87.80;;;;;;6282397;22;20310;-67
2022/03/07 06:14:37;;;;;;;0.20;0.20;;;0.70;88.10;;;;;;6272777;22;20012;-68
2022/03/07 06:17:03;;;;;;;0.10;0.10;;;0.70;88.20;;;;;;6275036;22;20099;-67
2022/03/07 06:19:31;;;;;;;0.10;0.10;;;0.70;88.30;;;;;;6284616;22;20084;-68
2022/03/07 06:22:00;;;;;;;0.52;0.52;;;0.60;88.50;;;;;;6275350;22;20004;-66
2022/03/07 06:24:39;;;;;;;0.10;0.10;;;0.60;88.50;;;;;;6285923;22;20011;-66
2022/03/07 06:27:08;;;;;;;0.10;0.10;;;0.50;88.60;;;;;;6285816;22;20436;-67
2022/03/07 06:29:43;;;;;;;1.50;1.42;;;0.50;89.30;;;;;;6284584;22;20014;-66
2022/03/07 06:32:12;;;;;;;96.57;4.18;;;0.50;89.20;;;;;;6273709;22;20014;-67
2022/03/07 06:34:38;;;;;;;0.10;0.10;;;0.50;89.30;;;;;;6274424;22;20011;-67
2022/03/07 06:37:06;;;;;;;0.68;0.68;;;0.30;89.90;;;;;;6275711;22;20034;-66
2022/03/07 06:39:32;;;;;;;0.85;0.85;;;0.30;90.00;;;;;;6285689;22;20436;-67
2022/03/07 06:41:58;;;;;;;0.10;0.10;;;0.20;89.80;;;;;;6285626;22;20103;-67
2022/03/07 06:44:24;;;;;;;0.63;0.63;;;0.20;90.00;;;;;;6285571;22;20007;-67
2022/03/07 06:46:50;;;;;;;0.10;0.10;;;0.20;90.10;;;;;;6275932;22;20000;-66
2022/03/07 06:49:15;;;;;;;0.85;0.85;;;0.30;90.10;;;;;;6285672;22;20451;-66
2022/03/07 06:51:41;;;;;;;0.47;0.47;;;0.10;90.20;;;;;;6285240;22;20023;-66
2022/03/07 06:54:07;;;;;;;0.10;0.10;;;0.10;90.20;;;;;;6285749;22;20007;-67
2022/03/07 06:56:33;;;;;;;0.17;0.17;;;0.20;89.90;;;;;;6274035;22;20020;-66
2022/03/07 06:58:59;;;;;;;0.65;0.65;;;0.10;89.90;;;;;;6275885;22;20008;-67
2022/03/07 07:01:25;;;;;;;0.20;0.20;;;0.10;89.70;;;;;;6285522;22;20027;-67
2022/03/07 07:03:52;;;;;;;0.32;0.25;;;0.20;89.60;;;;;;6275229;22;20046;-67
2022/03/07 07:06:18;;;;;;;0.10;0.10;;;0.30;89.50;;;;;;6285440;22;20011;-67
2022/03/07 07:08:44;;;;;;;0.50;0.50;;;0.30;89.10;;;;;;6285407;22;20391;-67
2022/03/07 07:11:09;;;;;;;0.30;0.30;;;0.30;89.10;;;;;;6285133;22;20038;-67
2022/03/07 07:13:35;;;;;;;0.10;0.10;;;0.30;88.90;;;;;;6285264;22;20004;-67
2022/03/07 07:16:01;;;;;;;0.13;0.13;;;0.30;88.70;;;;;;6275066;22;20011;-67
2022/03/07 07:18:26;;;;;;;0.13;0.13;;;0.30;88.60;;;;;;6274791;22;20003;-67
2022/03/07 07:20:53;;;;;;;0.10;0.10;;;0.40;88.40;;;;;;6285289;22;20012;-68
2022/03/07 07:23:21;;;;;;;0.10;0.10;;;0.40;88.50;;;;;;6275536;22;20008;-67
2022/03/07 07:25:47;;;;;;;0.32;0.32;;;0.50;88.20;;;;;;6285327;22;20004;-67
2022/03/07 07:28:13;;;;;;;0.10;0.10;;;0.50;88.20;;;;;;6273964;22;20050;-67
2022/03/07 07:30:42;;;;;;;0.10;0.10;;;0.50;88.30;;;;;;6285423;22;20000;-67
2022/03/07 07:33:08;;;;;;;1.52;0.85;;;0.60;88.00;;;;;;6283936;22;20004;-67
2022/03/07 07:35:36;;;;;;;0.10;0.10;;;0.70;87.90;;;;;;6275336;22;20018;-68
2022/03/07 07:38:05;;;;;;;0.63;0.63;;;0.70;87.40;;;;;;6275247;22;20408;-69
2022/03/07 07:40:31;;;;;;;0.90;0.73;;;0.70;87.60;;;;;;6275154;22;20034;-69
2022/03/07 07:42:58;;;;;;;0.10;0.10;;;0.70;87.50;;;;;;6285077;22;20011;-70
2022/03/07 07:45:24;;;;;;;0.10;0.10;;;0.70;87.20;;;;;;6274974;22;20015;-69
2022/03/07 07:47:51;;;;;;;0.20;0.20;;;0.80;87.00;;;;;;6285125;22;20031;-69
2022/03/07 07:50:17;;;;;;;0.10;0.10;;;0.90;86.50;;;;;;6273461;22;20409;-69
2022/03/07 07:52:43;;;;;;;0.45;0.45;;;1.00;86.50;;;;;;6285089;22;20008;-69
2022/03/07 07:55:09;;;;;;;0.47;0.47;;;1.10;86.00;;;;;;6275150;22;20012;-69
2022/03/07 07:57:35;;;;;;;0.00;0.00;;;1.10;85.70;;;;;;6285161;22;20327;-69
2022/03/07 08:00:04;;;;;;;0.30;0.30;;;1.10;86.00;;;;;;6284965;22;20046;-69
2022/03/07 08:02:30;;;;;;;0.00;0.00;;;1.20;85.60;;;;;;6273210;22;20050;-69
2022/03/07 08:04:56;;;;;;;0.10;0.10;;;1.20;85.20;;;;;;6285257;22;20003;-68
2022/03/07 08:07:21;;;;;;;0.80;0.70;;;1.30;85.10;;;;;;6274837;22;20022;-67
2022/03/07 08:09:47;;;;;;;1.63;1.48;;;1.30;85.10;;;;;;6284956;22;20011;-67
2022/03/07 08:12:17;;;;;;;0.10;0.10;;;1.40;84.90;;;;;;6284793;22;20020;-68
2022/03/07 08:14:43;;;;;;;0.55;0.55;;;1.40;84.60;;;;;;6285078;22;20396;-68
2022/03/07 08:17:09;;;;;;;0.20;0.20;;;1.50;84.00;;;;;;6275114;22;20090;-67
2022/03/07 08:19:35;;;;;;;0.10;0.10;;;1.50;83.80;;;;;;6274840;22;20038;-67
2022/03/07 08:22:00;;;;;;;2.65;2.45;;;1.50;83.90;;;;;;6284724;22;20012;-69
2022/03/07 08:24:26;;;;;;;0.55;0.55;;;1.60;84.00;;;;;;6274046;22;20367;-69
2022/03/07 08:26:52;;;;;;;0.50;0.50;;;1.50;83.90;;;;;;6284899;22;20015;-70
2022/03/07 08:29:17;;;;;;;0.75;0.75;;;1.60;83.90;;;;;;6284821;22;20071;-69
2022/03/07 08:31:43;;;;;;;0.73;0.73;;;1.60;83.80;;;;;;6285029;22;20008;-70
2022/03/07 08:34:09;;;;;;;0.17;0.17;;;1.70;83.70;;;;;;6274432;22;20004;-69
2022/03/07 08:36:34;;;;;;;0.00;0.00;;;1.80;84.00;;;;;;6284743;22;20079;-69
2022/03/07 08:39:00;;;;;;;0.10;0.10;;;1.90;82.90;;;;;;6283096;22;20004;-69
2022/03/07 08:41:26;;;;;;;0.25;0.25;;;2.00;82.70;;;;;;6284702;22;20011;-69
2022/03/07 08:43:52;;;;;;;0.20;0.20;;;2.10;81.70;;;;;;6274845;22;20008;-69
2022/03/07 08:46:18;;;;;;;0.10;0.10;;;2.10;80.80;;;;;;6274817;22;20428;-70
2022/03/07 08:48:44;;;;;;;0.20;0.20;;;2.20;80.70;;;;;;6275014;22;20004;-69
2022/03/07 08:51:10;;;;;;;0.00;0.00;;;2.40;80.50;;;;;;6284689;22;20016;-69
2022/03/07 08:53:36;;;;;;;0.13;0.13;;;2.20;79.70;;;;;;6282823;22;20329;-69
2022/03/07 08:56:02;;;;;;;0.00;0.00;;;2.00;79.40;;;;;;6284626;22;20015;-70
2022/03/07 08:58:28;;;;;;;0.17;0.17;;;2.00;79.10;;;;;;6284566;22;20053;-70
2022/03/07 09:00:54;;;;;;;0.10;0.10;;;2.10;79.90;;;;;;6276969;22;20015;-70
2022/03/07 09:03:20;;;;;;;0.65;0.65;;;2.00;79.00;;;;;;6286712;22;20011;-70
2022/03/07 09:05:45;;;;;;;1.17;1.10;;;2.00;78.50;;;;;;6276714;22;20313;-70
2022/03/07 09:08:11;;;;;;;0.15;0.15;;;1.80;77.40;;;;;;6286624;22;20058;-70
2022/03/07 09:10:37;;;;;;;0.10;0.10;;;1.80;77.90;;;;;;6286513;22;20054;-70
2022/03/07 09:13:03;;;;;;;2.75;1.10;;;1.90;78.40;;;;;;6276876;22;20012;-70
2022/03/07 09:15:29;;;;;;;0.05;0.05;;;1.90;78.10;;;;;;6274960;22;20082;-70
2022/03/07 09:17:55;;;;;;;0.10;0.10;;;2.10;77.80;;;;;;6286513;22;20034;-70
2022/03/07 09:20:21;;;;;;;0.10;0.10;;;2.30;77.60;;;;;;6286405;22;20012;-68
2022/03/07 09:22:47;;;;;;;0.13;0.13;;;2.50;77.10;;;;;;6286569;22;20003;-69
2022/03/07 09:25:14;;;;;;;0.17;0.17;;;2.70;75.90;;;;;;6284817;22;20462;-69
2022/03/07 09:27:42;;;;;;;0.30;0.30;;;2.90;75.60;;;;;;6276099;22;20007;-69
2022/03/07 09:30:10;;;;;;;0.13;0.13;;;3.10;76.90;;;;;;6284455;22;20012;-69
2022/03/07 09:32:36;;;;;;;0.10;0.10;;;3.20;75.20;;;;;;6276484;22;20019;-70
2022/03/07 09:35:04;;;;;;;0.00;0.00;;;3.20;74.90;;;;;;6276065;22;20312;-69
2022/03/07 09:37:29;;;;;;;0.20;0.20;;;3.30;74.90;;;;;;6275983;22;20011;-69
2022/03/07 09:39:55;;;;;;;0.08;0.08;;;3.40;74.10;;;;;;6286342;22;20313;-70
2022/03/07 09:42:22;;;;;;;0.08;0.08;;;3.50;73.70;;;;;;6285875;22;20070;-69
2022/03/07 09:44:49;;;;;;;0.15;0.15;;;3.60;73.40;;;;;;6286323;22;20449;-69
2022/03/07 09:47:15;;;;;;;0.10;0.10;;;3.70;72.90;;;;;;6276158;22;20031;-69
2022/03/07 09:49:41;;;;;;;0.10;0.10;;;3.70;72.80;;;;;;6286234;22;20086;-70
2022/03/07 09:52:07;;;;;;;0.10;0.10;;;3.80;73.10;;;;;;6275586;22;20046;-69
2022/03/07 09:54:33;;;;;;;0.57;0.57;;;3.90;72.70;;;;;;6286087;22;20019;-69
2022/03/07 09:56:58;;;;;;;0.03;0.03;;;4.00;72.10;;;;;;6276015;22;20016;-69
2022/03/07 09:59:25;;;;;;;2.38;1.70;;;4.00;72.30;;;;;;6285750;22;20066;-67
2022/03/07 10:02:04;;;;;;;0.08;0.08;;;4.20;72.00;;;;;;6274664;22;20015;-70
2022/03/07 10:04:38;;;;;;;2.25;1.02;;;4.30;72.00;;;;;;6285981;22;20092;-70
2022/03/07 10:07:04;;;;;;;0.20;0.20;;;4.50;72.50;;;;;;6286213;22;20008;-69
2022/03/07 10:09:30;;;;;;;0.65;0.45;;;4.70;70.30;;;;;;6275306;22;20081;-70
2022/03/07 10:12:03;;;;;;;0.20;0.20;;;4.60;69.80;;;;;;6286051;22;20078;-70
2022/03/07 10:14:46;;;;;;;0.43;0.43;;;4.60;69.70;;;;;;6285767;22;20063;-70
2022/03/07 10:17:26;;;;;;;0.63;0.63;;;4.60;70.60;;;;;;6284552;22;20011;-70
2022/03/07 10:19:55;;;;;;;0.52;0.52;;;4.70;70.60;;;;;;6285992;22;20034;-70
2022/03/07 10:22:25;;;;;;;0.10;0.10;;;4.70;69.60;;;;;;6285933;22;20354;-70
2022/03/07 10:25:05;;;;;;;0.10;0.10;;;4.80;70.40;;;;;;6275848;22;20028;-70
2022/03/07 10:27:37;;;;;;;0.00;0.00;;;4.90;69.50;;;;;;6285545;22;20395;-69
2022/03/07 10:30:09;;;;;;;0.08;0.08;;;4.70;70.00;;;;;;6275618;22;20444;-69
2022/03/07 10:32:35;;;;;;;0.20;0.20;;;5.10;68.50;;;;;;6275970;22;20011;-70
2022/03/07 10:35:00;;;;;;;0.20;0.20;;;4.90;69.20;;;;;;6275776;22;20014;-69
2022/03/07 10:37:35;;;;;;;0.20;0.20;;;5.20;68.40;;;;;;6283707;22;20086;-70
2022/03/07 10:40:01;;;;;;;0.98;0.98;;;5.60;69.00;;;;;;6285052;22;20034;-69
2022/03/07 10:42:27;;;;;;;0.08;0.08;;;5.50;67.40;;;;;;6273759;22;20019;-69
2022/03/07 10:45:04;;;;;;;0.10;0.10;;;5.20;67.70;;;;;;6285739;22;20027;-69
2022/03/07 10:47:30;;;;;;;0.13;0.13;;;5.40;67.60;;;;;;6275623;22;20443;-69
2022/03/07 10:50:02;;;;;;;0.10;0.10;;;5.70;67.30;;;;;;6285313;22;20003;-68
2022/03/07 10:52:44;;;;;;;2.35;1.48;;;5.50;66.50;;;;;;6274999;22;20016;-70
2022/03/07 10:55:12;;;;;;;0.17;0.17;;;5.20;66.50;;;;;;6285547;22;20065;-69
2022/03/07 10:57:41;;;;;;;0.20;0.20;;;5.10;66.90;;;;;;6284855;22;20061;-70
2022/03/07 11:00:16;;;;;;;0.05;0.05;;;5.50;67.70;;;;;;6285477;22;20086;-69
2022/03/07 11:02:45;;;;;;;0.30;0.30;;;6.00;67.20;;;;;;6283691;22;20008;-68
2022/03/07 11:05:14;;;;;;;0.10;0.10;;;6.30;64.90;;;;;;6285120;22;20008;-70
2022/03/07 11:07:49;;;;;;;0.10;0.10;;;6.20;65.40;;;;;;6285170;22;20066;-68
2022/03/07 11:10:16;;;;;;;0.52;0.52;;;6.10;65.70;;;;;;6285430;22;20014;-71
2022/03/07 11:12:44;;;;;;;0.10;0.10;;;6.30;65.30;;;;;;6275162;22;20073;-66
2022/03/07 11:15:14;;;;;;;0.28;0.28;;;6.60;64.40;;;;;;6274842;22;20310;-69
2022/03/07 11:17:46;;;;;;;0.00;0.00;;;7.10;63.10;;;;;;6283640;22;20020;-72
2022/03/07 11:20:17;;;;;;;0.38;0.38;;;6.80;63.00;;;;;;6285426;22;20007;-68
2022/03/07 11:22:44;;;;;;;0.63;0.63;;;6.50;63.40;;;;;;6274744;22;20015;-76
2022/03/07 11:25:15;;;;;;;0.10;0.10;;;6.20;62.60;;;;;;6274900;22;20000;-74
2022/03/07 11:27:41;;;;;;;0.20;0.20;;;6.40;62.90;;;;;;6273729;22;20015;-73
2022/03/07 11:30:20;;;;;;;0.63;0.63;;;6.60;64.70;;;;;;6283520;22;20424;-69
2022/03/07 11:32:50;;;;;;;0.00;0.00;;;6.70;62.90;;;;;;6285051;22;20018;-72
2022/03/07 11:35:16;;;;;;;1.13;1.02;;;6.40;64.30;;;;;;6275109;22;20014;-72
2022/03/07 11:37:42;;;;;;;0.40;0.40;;;6.80;62.60;;;;;;6274967;22;20015;-70
2022/03/07 11:40:23;;;;;;;0.10;0.10;;;6.70;62.60;;;;;;6284751;22;20060;-69
2022/03/07 11:42:50;;;;;;;0.45;0.45;;;6.70;63.80;;;;;;6273474;22;20043;-70
2022/03/07 11:45:21;;;;;;;0.40;0.40;;;7.70;61.30;;;;;;6283393;22;20007;-67
2022/03/07 11:47:48;;;;;;;;;;;8.30;60.50;;;;;;6275596;22;20007;-69
2022/03/07 11:50:20;;;;;;;0.00;0.00;;;9.40;58.90;;;;;;6275110;22;19946;-67
2022/03/07 11:52:46;;;;;;;0.30;0.30;;;9.70;58.50;;;;;;6273330;22;19999;-69
2022/03/07 11:55:16;;;;;;;0.10;0.10;;;8.90;58.60;;;;;;6275099;22;20046;-69
2022/03/07 11:57:44;;;;;;;0.00;0.00;;;8.60;59.60;;;;;;6274881;22;20416;-69
2022/03/07 12:00:23;;;;;;;0.13;0.13;;;7.80;60.50;;;;;;6275147;22;20066;-70
2022/03/07 12:02:57;;;;;;;4.85;0.88;;;7.90;59.50;;;;;;6273568;22;20432;-69
2022/03/07 12:05:33;;;;;;;0.00;0.00;;;8.50;60.20;;;;;;6274417;22;20498;-70
2022/03/07 12:08:18;;;;;;;0.00;0.00;;;9.60;60.90;;;;;;6274728;22;20459;-69
2022/03/07 12:11:02;;;;;;;0.00;0.00;;;9.30;62.60;;;;;;6284766;22;20007;-69
2022/03/07 12:13:33;;;;;;;0.10;0.10;;;9.00;58.00;;;;;;6284850;22;20088;-69
2022/03/07 12:16:00;;;;;;;0.00;0.00;;;8.60;57.30;;;;;;6274926;22;20031;-68
2022/03/07 12:18:28;;;;;;;0.20;0.20;;;9.10;57.70;;;;;;6273186;22;20030;-69
2022/03/07 12:20:58;;;;;;;0.10;0.10;;;8.60;56.60;;;;;;6274713;22;20099;-69
2022/03/07 12:23:30;;;;;;;0.73;0.73;;;9.30;56.50;;;;;;6284749;22;20077;-69
2022/03/07 12:26:05;;;;;;;0.25;0.15;;;8.20;58.60;;;;;;6274603;22;20091;-69
2022/03/07 12:28:37;;;;;;;0.10;0.10;;;8.00;59.70;;;;;;6284657;22;20015;-69
2022/03/07 12:31:05;;;;;;;2.33;1.50;;;7.50;60.20;;;;;;6284677;22;20125;-70
2022/03/07 12:33:31;;;;;;;0.47;0.47;;;8.00;59.90;;;;;;6283255;22;20022;-70
2022/03/07 12:36:10;;;;;;;0.00;0.00;;;9.30;57.80;;;;;;6283631;22;20014;-70
2022/03/07 12:38:49;;;;;;;2.78;0.77;;;9.30;57.10;;;;;;6272736;22;20019;-69
2022/03/07 12:41:20;;;;;;;0.00;0.00;;;8.80;56.40;;;;;;6284638;22;20004;-69
2022/03/07 12:43:52;;;;;;;0.20;0.20;;;8.90;59.10;;;;;;6274071;22;20399;-69
2022/03/07 12:46:19;;;;;;;0.00;0.00;;;8.40;59.40;;;;;;6273049;22;20003;-69
2022/03/07 12:48:46;;;;;;;0.17;0.17;;;9.90;57.90;;;;;;6284601;22;20022;-69
2022/03/07 12:51:20;;;;;;;0.00;0.00;;;9.60;56.60;;;;;;6274277;22;20011;-68
2022/03/07 12:53:57;;;;;;;0.38;0.38;;;10.10;56.50;;;;;;6284062;22;20008;-69
2022/03/07 12:56:36;;;;;;;0.45;0.45;;;10.30;55.90;;;;;;6274187;22;20511;-69
2022/03/07 12:59:03;;;;;;;2.30;0.70;;;10.50;55.70;;;;;;6274616;22;20039;-69
2022/03/07 13:01:31;;;;;;;1.58;1.05;;;9.40;56.40;;;;;;6274283;22;20007;-69